createdAt,value
2022-10-09T00:01:39.822Z,98899.84
2022-10-09T00:05:41.906Z,98898.13
2022-10-09T00:09:44.058Z,98898.97
2022-10-09T00:13:46.347Z,98897.22
2022-10-09T00:17:48.596Z,98892.06
2022-10-09T00:21:50.673Z,98896.31
2022-10-09T00:25:58.362Z,98894.66
2022-10-09T00:30:00.369Z,98892.91
2022-10-09T00:34:02.397Z,98891.31
2022-10-09T00:38:04.494Z,98893.97
2022-10-09T00:42:06.505Z,98902.59
2022-10-09T00:46:18.854Z,98908.72
2022-10-09T00:50:28.155Z,98896.69
2022-10-09T00:54:32.746Z,98898.44
2022-10-09T00:58:34.830Z,98896.72
2022-10-09T01:02:37.717Z,98901.00
2022-10-09T01:06:48.988Z,98896.63
2022-10-09T01:11:14.288Z,98895.72
2022-10-09T01:15:24.583Z,98897.41
2022-10-09T01:19:47.365Z,98887.16
2022-10-09T01:23:58.609Z,98890.69
2022-10-09T01:28:03.661Z,98886.31
2022-10-09T01:32:09.242Z,98890.66
2022-10-09T01:36:11.492Z,98886.34
2022-10-09T01:40:16.277Z,98889.84
2022-10-09T01:44:24.219Z,98884.69
2022-10-09T01:48:27.648Z,98884.69
2022-10-09T01:52:41.105Z,98880.31
2022-10-09T01:56:47.460Z,98877.75
2022-10-09T02:01:04.821Z,98871.66
2022-10-09T02:05:09.468Z,98871.72
2022-10-09T02:09:14.057Z,98870.91
2022-10-09T02:13:16.152Z,98863.13
2022-10-09T02:17:25.438Z,98858.78
2022-10-09T02:21:39.803Z,98860.53
2022-10-09T02:25:41.903Z,98865.72
2022-10-09T02:29:45.438Z,98856.22
2022-10-09T02:33:58.334Z,98858.84
2022-10-09T02:38:00.370Z,98860.56
2022-10-09T02:42:02.937Z,98847.63
2022-10-09T02:46:05.143Z,98845.97
2022-10-09T02:50:08.087Z,98851.16
2022-10-09T02:54:10.260Z,98851.13
2022-10-09T02:58:12.331Z,98852.88
2022-10-09T03:02:14.474Z,98850.28
2022-10-09T03:06:22.545Z,98850.28
2022-10-09T03:10:24.783Z,98855.44
2022-10-09T03:14:26.827Z,98852.88
2022-10-09T03:18:28.896Z,98857.22
2022-10-09T03:22:30.899Z,98857.19
2022-10-09T03:26:33.270Z,98852.88
2022-10-09T03:30:35.258Z,98855.47
2022-10-09T03:34:37.290Z,98851.16
2022-10-09T03:38:39.885Z,98861.53
2022-10-09T03:42:41.858Z,98858.03
2022-10-09T03:46:43.977Z,98862.41
2022-10-09T03:50:46.064Z,98865.00
2022-10-09T03:54:48.022Z,98864.13
2022-10-09T03:58:49.994Z,98858.97
2022-10-09T04:02:52.622Z,98869.31
2022-10-09T04:06:54.927Z,98852.91
2022-10-09T04:11:01.099Z,98865.00
2022-10-09T04:15:04.015Z,98859.84
2022-10-09T04:19:06.017Z,98869.31
2022-10-09T04:23:08.003Z,98858.06
2022-10-09T04:27:10.020Z,98859.81
2022-10-09T04:31:12.058Z,98861.53
2022-10-09T04:35:14.393Z,98862.41
2022-10-09T04:39:16.439Z,98858.09
2022-10-09T04:43:18.454Z,98857.25
2022-10-09T04:47:20.442Z,98847.72
2022-10-09T04:51:22.441Z,98842.53
2022-10-09T04:55:24.533Z,98844.28
2022-10-09T04:59:26.572Z,98845.16
2022-10-09T05:03:28.581Z,98836.50
2022-10-09T05:07:30.626Z,98846.84
2022-10-09T05:11:32.891Z,98845.13
2022-10-09T05:15:37.781Z,98844.28
2022-10-09T05:19:39.840Z,98839.06
2022-10-09T05:23:42.071Z,98844.25
2022-10-09T05:27:44.081Z,98838.22
2022-10-09T05:31:49.500Z,98840.81
2022-10-09T05:35:52.699Z,98845.13
2022-10-09T05:39:54.727Z,98850.31
2022-10-09T05:44:01.437Z,98849.44
2022-10-09T05:48:03.689Z,98849.44
2022-10-09T05:52:05.676Z,98856.31
2022-10-09T05:56:18.468Z,98852.03
2022-10-09T06:00:20.533Z,98843.41
2022-10-09T06:04:24.160Z,98852.06
2022-10-09T06:08:26.327Z,98840.81
2022-10-09T06:12:28.301Z,98845.13
2022-10-09T06:16:36.403Z,98845.13
2022-10-09T06:20:38.434Z,98845.09
2022-10-09T06:24:40.431Z,98843.38
2022-10-09T06:28:43.625Z,98850.25
2022-10-09T06:32:45.716Z,98849.41
2022-10-09T06:36:47.790Z,98855.41
2022-10-09T06:40:49.782Z,98850.19
2022-10-09T06:44:51.762Z,98848.47
2022-10-09T06:48:54.107Z,98853.59
2022-10-09T06:52:56.751Z,98848.38
2022-10-09T06:56:58.755Z,98848.34
2022-10-09T07:01:11.426Z,98863.00
2022-10-09T07:05:13.622Z,98854.31
2022-10-09T07:09:16.373Z,98857.69
2022-10-09T07:13:18.438Z,98866.28
2022-10-09T07:17:20.419Z,98856.63
2022-10-09T07:21:23.953Z,98864.34
2022-10-09T07:25:26.016Z,98866.00
2022-10-09T07:29:28.104Z,98864.03
2022-10-09T07:33:30.225Z,98859.44
2022-10-09T07:37:32.306Z,98860.16
2022-10-09T07:41:34.791Z,98863.38
2022-10-09T07:45:36.809Z,98864.00
2022-10-09T07:49:38.859Z,98866.38
2022-10-09T07:53:41.071Z,98863.50
2022-10-09T07:57:43.058Z,98849.13
2022-10-09T08:01:45.145Z,98859.09
2022-10-09T08:05:57.036Z,98853.41
2022-10-09T08:09:59.015Z,98853.94
2022-10-09T08:14:01.228Z,98849.16
2022-10-09T08:18:03.311Z,98839.13
2022-10-09T08:22:05.321Z,98840.38
2022-10-09T08:26:19.980Z,98838.13
2022-10-09T08:30:22.023Z,98831.44
2022-10-09T08:34:24.484Z,98843.88
2022-10-09T08:38:46.167Z,98826.75
2022-10-09T08:43:05.096Z,98835.75
2022-10-09T08:47:23.366Z,98831.69
2022-10-09T08:51:34.615Z,98833.81
2022-10-09T08:55:51.081Z,98826.34
2022-10-09T08:59:53.129Z,98823.34
2022-10-09T09:04:16.557Z,98819.34
2022-10-09T09:08:30.345Z,98810.94
2022-10-09T09:12:43.141Z,98812.22
2022-10-09T09:16:51.150Z,98796.09
2022-10-09T09:20:54.004Z,98799.16
2022-10-09T09:24:58.203Z,98796.94
2022-10-09T09:29:04.824Z,98790.34
2022-10-09T09:33:22.248Z,98787.41
2022-10-09T09:37:24.376Z,98780.19
2022-10-09T09:41:28.288Z,98768.56
2022-10-09T09:45:30.465Z,98770.91
2022-10-09T09:49:32.480Z,98763.38
2022-10-09T09:53:41.692Z,98767.44
2022-10-09T09:57:45.345Z,98761.00
2022-10-09T10:01:47.429Z,98747.41
2022-10-09T10:05:49.785Z,98747.06
2022-10-09T10:10:02.256Z,98736.94
2022-10-09T10:14:14.729Z,98745.25
2022-10-09T10:18:18.840Z,98736.06
2022-10-09T10:22:26.643Z,98735.84
2022-10-09T10:26:39.796Z,98737.44
2022-10-09T10:30:44.311Z,98735.03
2022-10-09T10:35:01.466Z,98724.06
2022-10-09T10:39:18.284Z,98712.09
2022-10-09T10:43:30.914Z,98700.34
2022-10-09T10:47:41.177Z,98704.44
2022-10-09T10:51:49.494Z,98687.22
2022-10-09T10:56:04.142Z,98684.91
2022-10-09T11:00:09.473Z,98682.50
2022-10-09T11:04:30.043Z,98688.88
2022-10-09T11:08:56.996Z,98675.84
2022-10-09T11:13:27.395Z,98670.28
2022-10-09T11:17:35.220Z,98661.88
2022-10-09T11:21:49.425Z,98664.16
2022-10-09T11:26:10.200Z,98655.94
2022-10-09T11:30:18.026Z,98647.59
2022-10-09T11:34:26.379Z,98642.72
2022-10-09T11:38:33.379Z,98630.09
2022-10-09T11:42:35.640Z,98628.00
2022-10-09T11:47:14.973Z,98621.56
2022-10-09T11:51:28.065Z,98621.38
2022-10-09T11:55:32.572Z,98609.84
2022-10-09T11:59:37.683Z,98607.72
2022-10-09T12:03:40.660Z,98591.66
2022-10-09T12:07:42.974Z,98591.19
2022-10-09T12:12:07.247Z,98573.84
2022-10-09T12:16:29.779Z,98567.19
2022-10-09T12:20:32.356Z,98559.81
2022-10-09T12:24:40.903Z,98566.63
2022-10-09T12:28:51.143Z,98560.72
2022-10-09T12:33:07.430Z,98552.63
2022-10-09T12:37:21.100Z,98546.00
2022-10-09T12:41:31.421Z,98553.69
2022-10-09T12:45:33.860Z,98542.88
2022-10-09T12:49:36.237Z,98549.72
2022-10-09T12:53:47.221Z,98537.03
2022-10-09T12:57:49.914Z,98528.34
2022-10-09T13:01:56.980Z,98524.25
2022-10-09T13:05:59.868Z,98521.97
2022-10-09T13:10:08.050Z,98505.88
2022-10-09T13:14:33.321Z,98508.44
2022-10-09T13:18:37.155Z,98503.81
2022-10-09T13:22:39.545Z,98490.78
2022-10-09T13:26:43.855Z,98489.69
2022-10-09T13:30:46.005Z,98484.88
2022-10-09T13:34:48.694Z,98479.59
2022-10-09T13:38:50.711Z,98473.31
2022-10-09T13:42:55.612Z,98472.97
2022-10-09T13:46:57.728Z,98465.81
2022-10-09T13:51:00.215Z,98459.75
2022-10-09T13:55:02.230Z,98453.88
2022-10-09T13:59:04.470Z,98447.00
2022-10-09T14:03:06.484Z,98442.59
2022-10-09T14:07:08.696Z,98432.88
2022-10-09T14:11:10.802Z,98428.34
2022-10-09T14:15:12.802Z,98424.00
2022-10-09T14:19:14.788Z,98417.78
2022-10-09T14:23:16.812Z,98410.84
2022-10-09T14:27:18.807Z,98403.03
2022-10-09T14:31:21.383Z,98399.63
2022-10-09T14:35:23.858Z,98395.53
2022-10-09T14:39:26.057Z,98387.69
2022-10-09T14:43:28.164Z,98396.75
2022-10-09T14:47:30.210Z,98377.72
2022-10-09T14:51:36.656Z,98379.69
2022-10-09T14:55:38.890Z,98369.28
2022-10-09T14:59:40.962Z,98367.69
2022-10-09T15:03:43.324Z,98354.72
2022-10-09T15:07:45.347Z,98361.13
2022-10-09T15:11:47.392Z,98354.31
2022-10-09T15:15:49.428Z,98350.16
2022-10-09T15:19:53.848Z,98353.03
2022-10-09T15:23:58.404Z,98352.44
2022-10-09T15:28:01.852Z,98333.44
2022-10-09T15:32:03.841Z,98334.53
2022-10-09T15:36:05.856Z,98327.72
2022-10-09T15:40:08.230Z,98321.00
2022-10-09T15:44:17.446Z,98318.84
2022-10-09T15:48:24.593Z,98317.56
2022-10-09T15:52:26.628Z,98307.66
2022-10-09T15:56:29.751Z,98302.03
2022-10-09T16:00:39.450Z,98302.59
2022-10-09T16:04:41.458Z,98296.28
2022-10-09T16:08:44.130Z,98304.78
2022-10-09T16:12:46.142Z,98306.09
2022-10-09T16:16:49.807Z,98303.16
2022-10-09T16:20:51.969Z,98298.59
2022-10-09T16:24:54.016Z,98290.47
2022-10-09T16:28:56.299Z,98290.31
2022-10-09T16:32:59.112Z,98287.50
2022-10-09T16:37:02.222Z,98290.88
2022-10-09T16:41:08.579Z,98292.56
2022-10-09T16:45:10.940Z,98290.72
2022-10-09T16:49:19.969Z,98297.66
2022-10-09T16:53:24.937Z,98295.94
2022-10-09T16:57:27.000Z,98294.25
2022-10-09T17:01:29.983Z,98303.84
2022-10-09T17:05:32.034Z,98293.34
2022-10-09T17:09:36.597Z,98294.09
2022-10-09T17:13:39.757Z,98294.63
2022-10-09T17:17:41.882Z,98291.34
2022-10-09T17:21:43.991Z,98290.81
2022-10-09T17:25:46.089Z,98287.72
2022-10-09T17:29:48.116Z,98287.13
2022-10-09T17:33:57.615Z,98290.13
2022-10-09T17:37:59.642Z,98292.47
2022-10-09T17:42:01.636Z,98287.06
2022-10-09T17:46:04.023Z,98283.88
2022-10-09T17:50:06.723Z,98289.34
2022-10-09T17:54:13.851Z,98282.63
2022-10-09T17:58:16.875Z,98275.91
2022-10-09T18:02:18.929Z,98279.50
2022-10-09T18:06:24.874Z,98292.69
2022-10-09T18:10:26.901Z,98280.78
2022-10-09T18:14:28.875Z,98271.00
2022-10-09T18:18:30.849Z,98272.41
2022-10-09T18:22:35.838Z,98265.16
2022-10-09T18:26:38.235Z,98264.56
2022-10-09T18:30:46.012Z,98275.47
2022-10-09T18:34:48.154Z,98260.22
2022-10-09T18:38:55.346Z,98256.25
2022-10-09T18:42:57.454Z,98252.78
2022-10-09T18:46:59.974Z,98250.41
2022-10-09T18:51:02.851Z,98251.66
2022-10-09T18:55:06.845Z,98246.19
2022-10-09T18:59:13.756Z,98244.22
2022-10-09T19:03:15.802Z,98242.69
2022-10-09T19:07:17.780Z,98237.78
2022-10-09T19:11:19.774Z,98234.69
2022-10-09T19:15:21.969Z,98233.00
2022-10-09T19:19:23.930Z,98235.03
2022-10-09T19:23:25.921Z,98233.59
2022-10-09T19:27:28.379Z,98230.63
2022-10-09T19:31:31.903Z,98227.25
2022-10-09T19:35:34.110Z,98220.47
2022-10-09T19:39:36.161Z,98230.94
2022-10-09T19:43:38.950Z,98232.63
2022-10-09T19:47:40.964Z,98223.06
2022-10-09T19:51:43.054Z,98219.50
2022-10-09T19:55:45.051Z,98218.50
2022-10-09T19:59:47.890Z,98209.16
2022-10-09T20:03:55.423Z,98206.44
2022-10-09T20:07:57.486Z,98202.13
2022-10-09T20:11:59.512Z,98205.63
2022-10-09T20:16:03.367Z,98211.81
2022-10-09T20:20:06.199Z,98203.22
2022-10-09T20:24:08.463Z,98197.94
2022-10-09T20:28:10.539Z,98204.97
2022-10-09T20:32:13.048Z,98197.94
2022-10-09T20:36:19.508Z,98202.13
2022-10-09T20:40:21.698Z,98187.22
2022-10-09T20:44:23.710Z,98191.47
2022-10-09T20:48:25.838Z,98195.94
2022-10-09T20:52:27.843Z,98189.84
2022-10-09T20:56:31.898Z,98189.97
2022-10-09T21:00:34.034Z,98189.25
2022-10-09T21:04:36.072Z,98190.09
2022-10-09T21:08:38.851Z,98184.75
2022-10-09T21:12:41.231Z,98183.84
2022-10-09T21:16:43.310Z,98196.97
2022-10-09T21:20:47.976Z,98184.03
2022-10-09T21:24:49.943Z,98191.03
2022-10-09T21:28:56.736Z,98193.91
2022-10-09T21:33:01.212Z,98190.72
2022-10-09T21:41:25.984Z,98192.09
2022-10-09T21:45:28.047Z,98184.72
2022-10-09T21:49:30.091Z,98184.38
2022-10-09T21:53:32.221Z,98181.16
2022-10-09T21:57:34.373Z,98179.53
2022-10-09T22:01:36.609Z,98183.25
2022-10-09T22:05:40.590Z,98178.91
2022-10-09T22:09:42.559Z,98186.78
2022-10-09T22:13:44.702Z,98178.22
2022-10-09T22:17:46.692Z,98173.81
2022-10-09T22:21:49.362Z,98168.78
2022-10-09T22:26:00.122Z,98167.09
2022-10-09T22:30:02.550Z,98171.63
2022-10-09T22:34:04.670Z,98169.28
2022-10-09T22:38:06.654Z,98160.53
2022-10-09T22:42:08.658Z,98159.09
2022-10-09T22:46:14.309Z,98160.13
2022-10-09T22:50:16.347Z,98147.28
2022-10-09T22:54:19.021Z,98150.91
2022-10-09T22:58:21.011Z,98136.28
2022-10-09T23:02:22.988Z,98134.66
2022-10-09T23:06:24.999Z,98125.47
2022-10-09T23:10:26.966Z,98116.09
2022-10-09T23:14:28.981Z,98119.50
2022-10-09T23:18:31.254Z,98098.66
2022-10-09T23:22:33.267Z,98111.50
2022-10-09T23:26:36.435Z,98109.59
2022-10-09T23:30:38.480Z,98105.81
2022-10-09T23:34:40.524Z,98109.22
2022-10-09T23:38:43.004Z,98115.50
2022-10-09T23:42:45.016Z,98106.06
2022-10-09T23:46:47.086Z,98101.19
2022-10-09T23:50:50.673Z,98093.84
2022-10-09T23:54:52.681Z,98086.94
2022-10-09T23:58:56.289Z,98090.06
